sensor_id;sensor_type;location;lat;lon;timestamp;P1;durP1;ratioP1;P2;durP2;ratioP2
6755;SDS011;3415;51.148;7.014;2023-05-23T00:01:36;8.70;;;7.00;;
6755;SDS011;3415;51.148;7.014;2023-05-23T00:04:03;10.60;;;7.30;;
6755;SDS011;3415;51.148;7.014;2023-05-23T00:06:31;11.80;;;7.40;;
6755;SDS011;3415;51.148;7.014;2023-05-23T00:08:58;9.17;;;5.83;;
6755;SDS011;3415;51.148;7.014;2023-05-23T00:11:26;9.17;;;6.77;;
6755;SDS011;3415;51.148;7.014;2023-05-23T00:13:53;14.90;;;7.07;;
6755;SDS011;3415;51.148;7.014;2023-05-23T00:16:21;9.33;;;6.60;;
6755;SDS011;3415;51.148;7.014;2023-05-23T00:18:48;10.60;;;7.23;;
6755;SDS011;3415;51.148;7.014;2023-05-23T00:21:15;11.13;;;6.30;;
6755;SDS011;3415;51.148;7.014;2023-05-23T00:23:42;11.00;;;6.70;;
6755;SDS011;3415;51.148;7.014;2023-05-23T00:26:09;10.37;;;7.40;;
6755;SDS011;3415;51.148;7.014;2023-05-23T00:28:37;10.13;;;7.27;;
6755;SDS011;3415;51.148;7.014;2023-05-23T00:31:04;12.47;;;7.67;;
6755;SDS011;3415;51.148;7.014;2023-05-23T00:33:31;11.63;;;7.77;;
6755;SDS011;3415;51.148;7.014;2023-05-23T00:35:58;12.33;;;7.00;;
6755;SDS011;3415;51.148;7.014;2023-05-23T00:38:25;11.17;;;7.73;;
6755;SDS011;3415;51.148;7.014;2023-05-23T00:40:52;11.37;;;7.10;;
6755;SDS011;3415;51.148;7.014;2023-05-23T00:43:19;11.80;;;7.80;;
6755;SDS011;3415;51.148;7.014;2023-05-23T00:45:48;12.57;;;8.73;;
6755;SDS011;3415;51.148;7.014;2023-05-23T00:48:15;14.90;;;9.20;;
6755;SDS011;3415;51.148;7.014;2023-05-23T00:50:42;13.90;;;8.13;;
6755;SDS011;3415;51.148;7.014;2023-05-23T00:53:09;12.80;;;8.73;;
6755;SDS011;3415;51.148;7.014;2023-05-23T00:55:37;12.27;;;8.00;;
6755;SDS011;3415;51.148;7.014;2023-05-23T00:58:04;13.50;;;8.30;;
6755;SDS011;3415;51.148;7.014;2023-05-23T01:00:31;12.37;;;8.60;;
6755;SDS011;3415;51.148;7.014;2023-05-23T01:03:01;10.40;;;6.30;;
6755;SDS011;3415;51.148;7.014;2023-05-23T01:05:29;10.30;;;7.03;;
6755;SDS011;3415;51.148;7.014;2023-05-23T01:07:55;7.97;;;6.30;;
6755;SDS011;3415;51.148;7.014;2023-05-23T01:10:24;7.67;;;5.80;;
6755;SDS011;3415;51.148;7.014;2023-05-23T01:12:57;9.70;;;6.80;;
6755;SDS011;3415;51.148;7.014;2023-05-23T01:15:32;10.40;;;6.23;;
6755;SDS011;3415;51.148;7.014;2023-05-23T01:18:06;8.83;;;5.60;;
6755;SDS011;3415;51.148;7.014;2023-05-23T01:20:37;8.13;;;5.40;;
6755;SDS011;3415;51.148;7.014;2023-05-23T01:23:12;5.83;;;5.10;;
6755;SDS011;3415;51.148;7.014;2023-05-23T01:25:54;6.80;;;5.40;;
6755;SDS011;3415;51.148;7.014;2023-05-23T01:28:42;7.10;;;4.83;;
6755;SDS011;3415;51.148;7.014;2023-05-23T01:31:12;6.90;;;4.30;;
6755;SDS011;3415;51.148;7.014;2023-05-23T01:33:40;5.20;;;4.63;;
6755;SDS011;3415;51.148;7.014;2023-05-23T01:36:07;5.20;;;4.07;;
6755;SDS011;3415;51.148;7.014;2023-05-23T01:38:38;5.80;;;4.63;;
6755;SDS011;3415;51.148;7.014;2023-05-23T01:41:05;4.80;;;4.20;;
6755;SDS011;3415;51.148;7.014;2023-05-23T01:43:32;5.27;;;4.77;;
6755;SDS011;3415;51.148;7.014;2023-05-23T01:46:00;4.97;;;4.57;;
6755;SDS011;3415;51.148;7.014;2023-05-23T01:48:27;4.87;;;4.07;;
6755;SDS011;3415;51.148;7.014;2023-05-23T01:50:56;6.80;;;4.93;;
6755;SDS011;3415;51.148;7.014;2023-05-23T01:53:23;4.83;;;3.70;;
6755;SDS011;3415;51.148;7.014;2023-05-23T01:55:51;6.30;;;4.77;;
6755;SDS011;3415;51.148;7.014;2023-05-23T01:58:18;5.93;;;4.20;;
6755;SDS011;3415;51.148;7.014;2023-05-23T02:00:45;5.27;;;4.40;;
6755;SDS011;3415;51.148;7.014;2023-05-23T02:03:13;4.33;;;3.93;;
6755;SDS011;3415;51.148;7.014;2023-05-23T02:05:40;7.10;;;4.20;;
6755;SDS011;3415;51.148;7.014;2023-05-23T02:08:07;4.30;;;3.60;;
6755;SDS011;3415;51.148;7.014;2023-05-23T02:10:34;4.20;;;3.70;;
6755;SDS011;3415;51.148;7.014;2023-05-23T02:13:01;4.70;;;3.83;;
6755;SDS011;3415;51.148;7.014;2023-05-23T02:15:27;5.90;;;3.90;;
6755;SDS011;3415;51.148;7.014;2023-05-23T02:17:54;5.50;;;3.60;;
6755;SDS011;3415;51.148;7.014;2023-05-23T02:20:23;5.20;;;3.60;;
6755;SDS011;3415;51.148;7.014;2023-05-23T02:22:50;4.37;;;3.40;;
6755;SDS011;3415;51.148;7.014;2023-05-23T02:25:16;3.70;;;3.40;;
6755;SDS011;3415;51.148;7.014;2023-05-23T02:27:43;4.27;;;3.43;;
6755;SDS011;3415;51.148;7.014;2023-05-23T02:30:10;3.90;;;3.50;;
6755;SDS011;3415;51.148;7.014;2023-05-23T02:32:38;4.13;;;3.40;;
6755;SDS011;3415;51.148;7.014;2023-05-23T02:35:05;6.23;;;3.87;;
6755;SDS011;3415;51.148;7.014;2023-05-23T02:37:34;4.60;;;3.97;;
6755;SDS011;3415;51.148;7.014;2023-05-23T02:40:00;5.97;;;3.77;;
6755;SDS011;3415;51.148;7.014;2023-05-23T02:42:28;6.00;;;4.00;;
6755;SDS011;3415;51.148;7.014;2023-05-23T02:44:55;7.27;;;4.27;;
6755;SDS011;3415;51.148;7.014;2023-05-23T02:47:22;8.27;;;5.67;;
6755;SDS011;3415;51.148;7.014;2023-05-23T02:49:48;7.07;;;5.20;;
6755;SDS011;3415;51.148;7.014;2023-05-23T02:52:15;7.07;;;5.17;;
6755;SDS011;3415;51.148;7.014;2023-05-23T02:54:43;12.60;;;5.20;;
6755;SDS011;3415;51.148;7.014;2023-05-23T02:57:10;7.27;;;5.10;;
6755;SDS011;3415;51.148;7.014;2023-05-23T02:59:37;10.17;;;5.93;;
6755;SDS011;3415;51.148;7.014;2023-05-23T03:02:04;5.97;;;4.57;;
6755;SDS011;3415;51.148;7.014;2023-05-23T03:04:31;8.87;;;4.80;;
6755;SDS011;3415;51.148;7.014;2023-05-23T03:06:57;10.80;;;6.23;;
6755;SDS011;3415;51.148;7.014;2023-05-23T03:09:24;6.80;;;5.07;;
6755;SDS011;3415;51.148;7.014;2023-05-23T03:11:52;7.80;;;5.50;;
6755;SDS011;3415;51.148;7.014;2023-05-23T03:14:19;11.13;;;5.73;;
6755;SDS011;3415;51.148;7.014;2023-05-23T03:16:46;7.13;;;5.27;;
6755;SDS011;3415;51.148;7.014;2023-05-23T03:19:13;6.00;;;4.67;;
6755;SDS011;3415;51.148;7.014;2023-05-23T03:21:40;6.40;;;4.90;;
6755;SDS011;3415;51.148;7.014;2023-05-23T03:24:08;8.87;;;4.77;;
6755;SDS011;3415;51.148;7.014;2023-05-23T03:26:35;7.67;;;4.87;;
6755;SDS011;3415;51.148;7.014;2023-05-23T03:29:04;5.90;;;4.10;;
6755;SDS011;3415;51.148;7.014;2023-05-23T03:31:31;6.83;;;4.50;;
6755;SDS011;3415;51.148;7.014;2023-05-23T03:33:58;4.80;;;4.30;;
6755;SDS011;3415;51.148;7.014;2023-05-23T03:36:24;5.07;;;3.93;;
6755;SDS011;3415;51.148;7.014;2023-05-23T03:38:52;6.07;;;4.13;;
6755;SDS011;3415;51.148;7.014;2023-05-23T03:41:19;7.43;;;4.73;;
6755;SDS011;3415;51.148;7.014;2023-05-23T03:43:46;5.40;;;4.50;;
6755;SDS011;3415;51.148;7.014;2023-05-23T03:46:14;5.67;;;4.73;;
6755;SDS011;3415;51.148;7.014;2023-05-23T03:48:41;10.03;;;5.50;;
6755;SDS011;3415;51.148;7.014;2023-05-23T03:51:08;14.87;;;8.47;;
6755;SDS011;3415;51.148;7.014;2023-05-23T03:53:35;18.43;;;8.07;;
6755;SDS011;3415;51.148;7.014;2023-05-23T03:56:02;11.27;;;7.63;;
6755;SDS011;3415;51.148;7.014;2023-05-23T03:58:28;15.40;;;8.03;;
6755;SDS011;3415;51.148;7.014;2023-05-23T04:00:55;16.30;;;7.93;;
6755;SDS011;3415;51.148;7.014;2023-05-23T04:03:23;12.50;;;7.10;;
6755;SDS011;3415;51.148;7.014;2023-05-23T04:05:51;9.90;;;6.40;;
6755;SDS011;3415;51.148;7.014;2023-05-23T04:08:18;9.60;;;6.37;;
6755;SDS011;3415;51.148;7.014;2023-05-23T04:10:46;9.23;;;6.90;;
6755;SDS011;3415;51.148;7.014;2023-05-23T04:13:12;9.00;;;6.43;;
6755;SDS011;3415;51.148;7.014;2023-05-23T04:15:39;10.40;;;5.80;;
6755;SDS011;3415;51.148;7.014;2023-05-23T04:18:06;11.47;;;6.20;;
6755;SDS011;3415;51.148;7.014;2023-05-23T04:20:35;8.57;;;5.80;;
6755;SDS011;3415;51.148;7.014;2023-05-23T04:23:01;9.33;;;5.57;;
6755;SDS011;3415;51.148;7.014;2023-05-23T04:25:28;10.30;;;5.37;;
6755;SDS011;3415;51.148;7.014;2023-05-23T04:27:55;8.23;;;4.67;;
6755;SDS011;3415;51.148;7.014;2023-05-23T04:30:22;9.63;;;6.07;;
6755;SDS011;3415;51.148;7.014;2023-05-23T04:32:49;12.23;;;5.80;;
6755;SDS011;3415;51.148;7.014;2023-05-23T04:35:16;11.47;;;7.27;;
6755;SDS011;3415;51.148;7.014;2023-05-23T04:37:44;13.63;;;7.50;;
6755;SDS011;3415;51.148;7.014;2023-05-23T04:40:11;10.73;;;7.87;;
6755;SDS011;3415;51.148;7.014;2023-05-23T04:42:38;11.60;;;7.73;;
6755;SDS011;3415;51.148;7.014;2023-05-23T04:45:06;13.97;;;7.50;;
6755;SDS011;3415;51.148;7.014;2023-05-23T04:47:35;10.00;;;7.17;;
6755;SDS011;3415;51.148;7.014;2023-05-23T04:50:02;10.50;;;6.93;;
6755;SDS011;3415;51.148;7.014;2023-05-23T04:52:29;13.90;;;6.77;;
6755;SDS011;3415;51.148;7.014;2023-05-23T04:54:59;9.67;;;5.57;;
6755;SDS011;3415;51.148;7.014;2023-05-23T04:57:26;10.37;;;6.27;;
6755;SDS011;3415;51.148;7.014;2023-05-23T04:59:53;12.33;;;7.70;;
6755;SDS011;3415;51.148;7.014;2023-05-23T05:02:21;10.33;;;5.50;;
6755;SDS011;3415;51.148;7.014;2023-05-23T05:04:47;9.83;;;5.80;;
6755;SDS011;3415;51.148;7.014;2023-05-23T05:07:15;8.00;;;4.87;;
6755;SDS011;3415;51.148;7.014;2023-05-23T05:09:42;7.00;;;4.20;;
6755;SDS011;3415;51.148;7.014;2023-05-23T05:12:10;9.57;;;5.87;;
6755;SDS011;3415;51.148;7.014;2023-05-23T05:14:37;11.90;;;6.17;;
6755;SDS011;3415;51.148;7.014;2023-05-23T05:17:04;9.73;;;5.47;;
6755;SDS011;3415;51.148;7.014;2023-05-23T05:19:30;10.73;;;6.43;;
6755;SDS011;3415;51.148;7.014;2023-05-23T05:21:57;8.37;;;5.30;;
6755;SDS011;3415;51.148;7.014;2023-05-23T05:24:25;12.97;;;6.83;;
6755;SDS011;3415;51.148;7.014;2023-05-23T05:26:53;10.10;;;7.40;;
6755;SDS011;3415;51.148;7.014;2023-05-23T05:29:21;11.77;;;6.70;;
6755;SDS011;3415;51.148;7.014;2023-05-23T05:31:48;13.57;;;7.23;;
6755;SDS011;3415;51.148;7.014;2023-05-23T05:34:15;11.50;;;7.13;;
6755;SDS011;3415;51.148;7.014;2023-05-23T05:36:41;16.97;;;8.27;;
6755;SDS011;3415;51.148;7.014;2023-05-23T05:39:11;12.40;;;8.47;;
6755;SDS011;3415;51.148;7.014;2023-05-23T05:41:39;13.33;;;8.40;;
6755;SDS011;3415;51.148;7.014;2023-05-23T05:44:07;12.07;;;7.73;;
6755;SDS011;3415;51.148;7.014;2023-05-23T05:46:35;12.33;;;8.40;;
6755;SDS011;3415;51.148;7.014;2023-05-23T05:49:02;14.23;;;8.67;;
6755;SDS011;3415;51.148;7.014;2023-05-23T05:51:29;15.83;;;9.63;;
6755;SDS011;3415;51.148;7.014;2023-05-23T05:53:55;16.20;;;9.07;;
6755;SDS011;3415;51.148;7.014;2023-05-23T05:56:22;20.30;;;11.77;;
6755;SDS011;3415;51.148;7.014;2023-05-23T05:58:50;18.73;;;11.70;;
6755;SDS011;3415;51.148;7.014;2023-05-23T06:01:17;18.60;;;12.00;;
6755;SDS011;3415;51.148;7.014;2023-05-23T06:03:45;24.67;;;15.13;;
6755;SDS011;3415;51.148;7.014;2023-05-23T06:06:12;20.30;;;12.97;;
6755;SDS011;3415;51.148;7.014;2023-05-23T06:08:40;16.50;;;12.00;;
6755;SDS011;3415;51.148;7.014;2023-05-23T06:11:07;21.93;;;12.30;;
6755;SDS011;3415;51.148;7.014;2023-05-23T06:13:33;16.20;;;11.30;;
6755;SDS011;3415;51.148;7.014;2023-05-23T06:16:00;18.57;;;11.93;;
6755;SDS011;3415;51.148;7.014;2023-05-23T06:18:27;20.50;;;11.20;;
6755;SDS011;3415;51.148;7.014;2023-05-23T06:20:55;15.20;;;10.60;;
6755;SDS011;3415;51.148;7.014;2023-05-23T06:23:22;19.10;;;10.90;;
6755;SDS011;3415;51.148;7.014;2023-05-23T06:25:49;14.83;;;10.00;;
6755;SDS011;3415;51.148;7.014;2023-05-23T06:28:16;13.83;;;9.03;;
6755;SDS011;3415;51.148;7.014;2023-05-23T06:30:43;13.17;;;8.20;;
6755;SDS011;3415;51.148;7.014;2023-05-23T06:33:09;13.80;;;8.83;;
6755;SDS011;3415;51.148;7.014;2023-05-23T06:35:37;11.33;;;8.33;;
6755;SDS011;3415;51.148;7.014;2023-05-23T06:38:05;14.63;;;8.83;;
6755;SDS011;3415;51.148;7.014;2023-05-23T06:40:32;14.67;;;9.03;;
6755;SDS011;3415;51.148;7.014;2023-05-23T06:42:58;13.20;;;8.63;;
6755;SDS011;3415;51.148;7.014;2023-05-23T06:45:25;13.07;;;9.60;;
6755;SDS011;3415;51.148;7.014;2023-05-23T06:47:52;14.43;;;9.33;;
6755;SDS011;3415;51.148;7.014;2023-05-23T06:50:19;19.47;;;10.07;;
6755;SDS011;3415;51.148;7.014;2023-05-23T06:52:46;16.33;;;9.50;;
6755;SDS011;3415;51.148;7.014;2023-05-23T06:55:15;20.17;;;10.07;;
6755;SDS011;3415;51.148;7.014;2023-05-23T06:57:43;9.47;;;7.43;;
6755;SDS011;3415;51.148;7.014;2023-05-23T07:00:10;19.33;;;8.87;;
6755;SDS011;3415;51.148;7.014;2023-05-23T07:02:38;15.43;;;9.10;;
6755;SDS011;3415;51.148;7.014;2023-05-23T07:05:06;11.13;;;8.53;;
6755;SDS011;3415;51.148;7.014;2023-05-23T07:07:33;16.43;;;9.60;;
6755;SDS011;3415;51.148;7.014;2023-05-23T07:10:00;14.33;;;10.27;;
6755;SDS011;3415;51.148;7.014;2023-05-23T07:12:28;16.73;;;11.50;;
6755;SDS011;3415;51.148;7.014;2023-05-23T07:14:55;15.30;;;11.37;;
6755;SDS011;3415;51.148;7.014;2023-05-23T07:17:22;16.70;;;10.10;;
6755;SDS011;3415;51.148;7.014;2023-05-23T07:19:51;14.40;;;10.03;;
6755;SDS011;3415;51.148;7.014;2023-05-23T07:22:18;15.70;;;9.50;;
6755;SDS011;3415;51.148;7.014;2023-05-23T07:24:47;13.03;;;8.77;;
6755;SDS011;3415;51.148;7.014;2023-05-23T07:27:14;14.57;;;9.37;;
6755;SDS011;3415;51.148;7.014;2023-05-23T07:29:43;15.00;;;9.40;;
6755;SDS011;3415;51.148;7.014;2023-05-23T07:32:10;13.83;;;9.70;;
6755;SDS011;3415;51.148;7.014;2023-05-23T07:34:37;15.80;;;8.93;;
6755;SDS011;3415;51.148;7.014;2023-05-23T07:37:04;16.33;;;8.53;;
6755;SDS011;3415;51.148;7.014;2023-05-23T07:39:31;15.93;;;8.80;;
6755;SDS011;3415;51.148;7.014;2023-05-23T07:41:58;13.67;;;8.97;;
6755;SDS011;3415;51.148;7.014;2023-05-23T07:44:25;16.30;;;8.53;;
6755;SDS011;3415;51.148;7.014;2023-05-23T07:46:54;14.20;;;9.07;;
6755;SDS011;3415;51.148;7.014;2023-05-23T07:49:22;12.60;;;7.83;;
6755;SDS011;3415;51.148;7.014;2023-05-23T07:51:49;10.17;;;7.90;;
6755;SDS011;3415;51.148;7.014;2023-05-23T07:54:16;13.53;;;8.10;;
6755;SDS011;3415;51.148;7.014;2023-05-23T07:56:43;12.50;;;7.77;;
6755;SDS011;3415;51.148;7.014;2023-05-23T07:59:09;14.20;;;9.30;;
6755;SDS011;3415;51.148;7.014;2023-05-23T08:01:37;17.77;;;8.10;;
6755;SDS011;3415;51.148;7.014;2023-05-23T08:04:05;12.27;;;7.90;;
6755;SDS011;3415;51.148;7.014;2023-05-23T08:06:32;20.00;;;8.20;;
6755;SDS011;3415;51.148;7.014;2023-05-23T08:08:59;13.47;;;9.17;;
6755;SDS011;3415;51.148;7.014;2023-05-23T08:11:26;11.70;;;7.77;;
6755;SDS011;3415;51.148;7.014;2023-05-23T08:13:54;14.00;;;8.17;;
6755;SDS011;3415;51.148;7.014;2023-05-23T08:16:21;15.00;;;8.50;;
6755;SDS011;3415;51.148;7.014;2023-05-23T08:18:48;12.97;;;8.23;;
6755;SDS011;3415;51.148;7.014;2023-05-23T08:21:16;12.30;;;8.87;;
6755;SDS011;3415;51.148;7.014;2023-05-23T08:23:43;19.27;;;10.00;;
6755;SDS011;3415;51.148;7.014;2023-05-23T08:26:10;19.03;;;10.60;;
6755;SDS011;3415;51.148;7.014;2023-05-23T08:28:36;15.53;;;10.57;;
6755;SDS011;3415;51.148;7.014;2023-05-23T08:31:03;19.57;;;11.27;;
6755;SDS011;3415;51.148;7.014;2023-05-23T08:33:31;16.30;;;10.47;;
6755;SDS011;3415;51.148;7.014;2023-05-23T08:35:58;15.47;;;10.40;;
6755;SDS011;3415;51.148;7.014;2023-05-23T08:38:26;18.57;;;12.23;;
6755;SDS011;3415;51.148;7.014;2023-05-23T08:40:53;21.97;;;13.00;;
6755;SDS011;3415;51.148;7.014;2023-05-23T08:43:21;21.03;;;12.47;;
6755;SDS011;3415;51.148;7.014;2023-05-23T08:45:48;23.10;;;14.53;;
6755;SDS011;3415;51.148;7.014;2023-05-23T08:48:18;27.90;;;15.00;;
6755;SDS011;3415;51.148;7.014;2023-05-23T08:50:46;23.97;;;15.60;;
6755;SDS011;3415;51.148;7.014;2023-05-23T08:53:14;21.73;;;14.10;;
6755;SDS011;3415;51.148;7.014;2023-05-23T08:55:46;22.07;;;12.10;;
6755;SDS011;3415;51.148;7.014;2023-05-23T08:58:15;16.17;;;11.10;;
6755;SDS011;3415;51.148;7.014;2023-05-23T09:00:44;26.80;;;16.40;;
6755;SDS011;3415;51.148;7.014;2023-05-23T09:03:12;23.90;;;13.17;;
6755;SDS011;3415;51.148;7.014;2023-05-23T09:05:39;24.50;;;14.57;;
6755;SDS011;3415;51.148;7.014;2023-05-23T09:08:07;29.13;;;15.37;;
6755;SDS011;3415;51.148;7.014;2023-05-23T09:10:34;28.07;;;16.77;;
6755;SDS011;3415;51.148;7.014;2023-05-23T09:13:03;37.87;;;19.07;;
6755;SDS011;3415;51.148;7.014;2023-05-23T09:15:30;29.80;;;19.23;;
6755;SDS011;3415;51.148;7.014;2023-05-23T09:17:58;40.13;;;22.00;;
6755;SDS011;3415;51.148;7.014;2023-05-23T09:20:27;40.10;;;22.40;;
6755;SDS011;3415;51.148;7.014;2023-05-23T09:22:54;40.53;;;21.10;;
6755;SDS011;3415;51.148;7.014;2023-05-23T09:25:21;48.50;;;25.33;;
6755;SDS011;3415;51.148;7.014;2023-05-23T09:27:50;48.50;;;26.20;;
6755;SDS011;3415;51.148;7.014;2023-05-23T09:30:21;43.17;;;22.63;;
6755;SDS011;3415;51.148;7.014;2023-05-23T09:32:57;46.40;;;25.13;;
6755;SDS011;3415;51.148;7.014;2023-05-23T09:35:27;40.03;;;21.90;;
6755;SDS011;3415;51.148;7.014;2023-05-23T09:37:54;33.77;;;21.17;;
6755;SDS011;3415;51.148;7.014;2023-05-23T09:40:23;35.23;;;19.67;;
6755;SDS011;3415;51.148;7.014;2023-05-23T09:42:54;34.77;;;19.50;;
6755;SDS011;3415;51.148;7.014;2023-05-23T09:45:29;47.90;;;23.97;;
6755;SDS011;3415;51.148;7.014;2023-05-23T09:47:56;33.50;;;20.87;;
6755;SDS011;3415;51.148;7.014;2023-05-23T09:50:25;43.50;;;22.07;;
6755;SDS011;3415;51.148;7.014;2023-05-23T09:52:57;41.53;;;21.70;;
6755;SDS011;3415;51.148;7.014;2023-05-23T09:55:24;41.33;;;22.13;;
6755;SDS011;3415;51.148;7.014;2023-05-23T09:57:52;41.47;;;20.00;;
6755;SDS011;3415;51.148;7.014;2023-05-23T10:00:20;37.40;;;19.30;;
6755;SDS011;3415;51.148;7.014;2023-05-23T10:02:54;47.10;;;23.13;;
6755;SDS011;3415;51.148;7.014;2023-05-23T10:05:29;49.47;;;25.50;;
6755;SDS011;3415;51.148;7.014;2023-05-23T10:07:59;44.43;;;24.10;;
6755;SDS011;3415;51.148;7.014;2023-05-23T10:10:30;35.27;;;21.50;;
6755;SDS011;3415;51.148;7.014;2023-05-23T10:12:57;36.37;;;21.93;;
6755;SDS011;3415;51.148;7.014;2023-05-23T10:15:28;40.67;;;22.00;;
6755;SDS011;3415;51.148;7.014;2023-05-23T10:18:08;37.43;;;21.30;;
6755;SDS011;3415;51.148;7.014;2023-05-23T10:20:42;35.20;;;20.93;;
6755;SDS011;3415;51.148;7.014;2023-05-23T10:23:12;31.30;;;17.47;;
6755;SDS011;3415;51.148;7.014;2023-05-23T10:25:40;29.23;;;12.87;;
6755;SDS011;3415;51.148;7.014;2023-05-23T10:28:08;16.50;;;10.90;;
6755;SDS011;3415;51.148;7.014;2023-05-23T10:30:35;19.37;;;8.30;;
6755;SDS011;3415;51.148;7.014;2023-05-23T10:33:03;15.60;;;8.47;;
6755;SDS011;3415;51.148;7.014;2023-05-23T10:35:36;19.10;;;10.87;;
6755;SDS011;3415;51.148;7.014;2023-05-23T10:38:15;21.10;;;13.70;;
6755;SDS011;3415;51.148;7.014;2023-05-23T10:40:52;23.90;;;14.40;;
6755;SDS011;3415;51.148;7.014;2023-05-23T10:43:27;26.00;;;13.40;;
6755;SDS011;3415;51.148;7.014;2023-05-23T10:45:59;22.90;;;12.63;;
6755;SDS011;3415;51.148;7.014;2023-05-23T10:48:31;25.30;;;15.40;;
6755;SDS011;3415;51.148;7.014;2023-05-23T10:51:04;26.60;;;13.03;;
6755;SDS011;3415;51.148;7.014;2023-05-23T10:53:33;23.80;;;13.53;;
6755;SDS011;3415;51.148;7.014;2023-05-23T10:56:03;24.77;;;12.67;;
6755;SDS011;3415;51.148;7.014;2023-05-23T10:58:31;28.97;;;16.93;;
6755;SDS011;3415;51.148;7.014;2023-05-23T11:00:59;33.50;;;17.77;;
6755;SDS011;3415;51.148;7.014;2023-05-23T11:03:33;34.83;;;16.27;;
6755;SDS011;3415;51.148;7.014;2023-05-23T11:06:02;34.67;;;18.20;;
6755;SDS011;3415;51.148;7.014;2023-05-23T11:08:36;29.47;;;16.87;;
6755;SDS011;3415;51.148;7.014;2023-05-23T11:11:06;31.70;;;15.70;;
6755;SDS011;3415;51.148;7.014;2023-05-23T11:16:23;17.60;;;10.87;;
6755;SDS011;3415;51.148;7.014;2023-05-23T11:18:51;22.20;;;11.00;;
6755;SDS011;3415;51.148;7.014;2023-05-23T11:21:24;15.80;;;9.23;;
6755;SDS011;3415;51.148;7.014;2023-05-23T11:23:54;22.60;;;7.50;;
6755;SDS011;3415;51.148;7.014;2023-05-23T11:26:29;15.53;;;7.87;;
6755;SDS011;3415;51.148;7.014;2023-05-23T11:28:57;11.37;;;6.03;;
6755;SDS011;3415;51.148;7.014;2023-05-23T11:31:24;13.20;;;4.80;;
6755;SDS011;3415;51.148;7.014;2023-05-23T11:33:51;12.50;;;4.60;;
6755;SDS011;3415;51.148;7.014;2023-05-23T11:36:19;10.73;;;4.80;;
6755;SDS011;3415;51.148;7.014;2023-05-23T11:38:48;16.13;;;5.10;;
6755;SDS011;3415;51.148;7.014;2023-05-23T11:41:16;10.07;;;6.03;;
6755;SDS011;3415;51.148;7.014;2023-05-23T11:43:48;10.00;;;5.80;;
6755;SDS011;3415;51.148;7.014;2023-05-23T11:46:16;7.07;;;5.60;;
6755;SDS011;3415;51.148;7.014;2023-05-23T11:48:43;7.40;;;6.00;;
6755;SDS011;3415;51.148;7.014;2023-05-23T11:51:11;12.00;;;6.40;;
6755;SDS011;3415;51.148;7.014;2023-05-23T11:53:38;8.77;;;6.83;;
6755;SDS011;3415;51.148;7.014;2023-05-23T11:56:06;11.97;;;6.23;;
6755;SDS011;3415;51.148;7.014;2023-05-23T11:58:33;13.70;;;6.00;;
6755;SDS011;3415;51.148;7.014;2023-05-23T12:01:01;8.00;;;5.37;;
6755;SDS011;3415;51.148;7.014;2023-05-23T12:03:29;12.80;;;7.23;;
6755;SDS011;3415;51.148;7.014;2023-05-23T12:05:56;12.13;;;7.80;;
6755;SDS011;3415;51.148;7.014;2023-05-23T12:08:23;15.10;;;9.80;;
6755;SDS011;3415;51.148;7.014;2023-05-23T12:10:51;13.20;;;8.40;;
6755;SDS011;3415;51.148;7.014;2023-05-23T12:13:20;17.20;;;9.17;;
6755;SDS011;3415;51.148;7.014;2023-05-23T12:15:52;15.50;;;8.30;;
6755;SDS011;3415;51.148;7.014;2023-05-23T12:18:20;10.60;;;7.37;;
6755;SDS011;3415;51.148;7.014;2023-05-23T12:20:47;8.10;;;5.53;;
6755;SDS011;3415;51.148;7.014;2023-05-23T12:23:18;9.10;;;4.90;;
6755;SDS011;3415;51.148;7.014;2023-05-23T12:25:48;7.20;;;4.40;;
6755;SDS011;3415;51.148;7.014;2023-05-23T12:28:15;6.30;;;3.73;;
6755;SDS011;3415;51.148;7.014;2023-05-23T12:30:44;6.30;;;3.80;;
6755;SDS011;3415;51.148;7.014;2023-05-23T12:33:11;7.27;;;4.03;;
6755;SDS011;3415;51.148;7.014;2023-05-23T12:35:41;6.23;;;3.50;;
6755;SDS011;3415;51.148;7.014;2023-05-23T12:38:08;8.37;;;4.20;;
6755;SDS011;3415;51.148;7.014;2023-05-23T12:40:40;8.70;;;3.27;;
6755;SDS011;3415;51.148;7.014;2023-05-23T12:43:07;10.07;;;3.90;;
6755;SDS011;3415;51.148;7.014;2023-05-23T12:45:35;10.23;;;5.10;;
6755;SDS011;3415;51.148;7.014;2023-05-23T12:48:04;6.03;;;5.20;;
6755;SDS011;3415;51.148;7.014;2023-05-23T12:50:31;10.87;;;5.70;;
6755;SDS011;3415;51.148;7.014;2023-05-23T12:52:58;17.93;;;6.23;;
6755;SDS011;3415;51.148;7.014;2023-05-23T12:55:25;15.27;;;6.90;;
6755;SDS011;3415;51.148;7.014;2023-05-23T12:57:52;7.33;;;5.20;;
6755;SDS011;3415;51.148;7.014;2023-05-23T13:00:20;11.80;;;6.00;;
6755;SDS011;3415;51.148;7.014;2023-05-23T13:02:47;15.80;;;6.03;;
6755;SDS011;3415;51.148;7.014;2023-05-23T13:05:15;7.87;;;5.67;;
6755;SDS011;3415;51.148;7.014;2023-05-23T13:07:42;8.63;;;5.97;;
6755;SDS011;3415;51.148;7.014;2023-05-23T13:10:09;6.93;;;4.40;;
6755;SDS011;3415;51.148;7.014;2023-05-23T13:12:36;7.70;;;4.83;;
6755;SDS011;3415;51.148;7.014;2023-05-23T13:15:04;7.37;;;4.00;;
6755;SDS011;3415;51.148;7.014;2023-05-23T13:17:31;6.43;;;3.10;;
6755;SDS011;3415;51.148;7.014;2023-05-23T13:19:58;5.07;;;2.97;;
6755;SDS011;3415;51.148;7.014;2023-05-23T13:22:27;5.90;;;3.20;;
6755;SDS011;3415;51.148;7.014;2023-05-23T13:24:54;8.40;;;4.00;;
6755;SDS011;3415;51.148;7.014;2023-05-23T13:27:21;8.10;;;3.40;;
6755;SDS011;3415;51.148;7.014;2023-05-23T13:29:48;5.63;;;3.70;;
6755;SDS011;3415;51.148;7.014;2023-05-23T13:32:14;9.60;;;4.47;;
6755;SDS011;3415;51.148;7.014;2023-05-23T13:34:41;7.13;;;3.70;;
6755;SDS011;3415;51.148;7.014;2023-05-23T13:37:08;4.77;;;3.03;;
6755;SDS011;3415;51.148;7.014;2023-05-23T13:39:37;8.53;;;3.30;;
6755;SDS011;3415;51.148;7.014;2023-05-23T13:42:04;7.30;;;3.07;;
6755;SDS011;3415;51.148;7.014;2023-05-23T13:44:32;6.87;;;3.60;;
6755;SDS011;3415;51.148;7.014;2023-05-23T13:47:08;12.03;;;3.43;;
6755;SDS011;3415;51.148;7.014;2023-05-23T13:49:35;7.17;;;3.13;;
6755;SDS011;3415;51.148;7.014;2023-05-23T13:52:02;6.23;;;3.80;;
6755;SDS011;3415;51.148;7.014;2023-05-23T13:54:30;9.97;;;3.43;;
6755;SDS011;3415;51.148;7.014;2023-05-23T13:56:59;7.73;;;4.13;;
6755;SDS011;3415;51.148;7.014;2023-05-23T13:59:26;12.53;;;4.20;;
6755;SDS011;3415;51.148;7.014;2023-05-23T14:01:53;6.83;;;3.70;;
6755;SDS011;3415;51.148;7.014;2023-05-23T14:04:20;10.13;;;4.60;;
6755;SDS011;3415;51.148;7.014;2023-05-23T14:06:47;5.43;;;2.60;;
6755;SDS011;3415;51.148;7.014;2023-05-23T14:09:14;6.17;;;3.30;;
6755;SDS011;3415;51.148;7.014;2023-05-23T14:11:41;10.80;;;2.40;;
6755;SDS011;3415;51.148;7.014;2023-05-23T14:14:10;5.20;;;2.60;;
6755;SDS011;3415;51.148;7.014;2023-05-23T14:16:36;6.13;;;2.80;;
6755;SDS011;3415;51.148;7.014;2023-05-23T14:19:03;7.73;;;2.93;;
6755;SDS011;3415;51.148;7.014;2023-05-23T14:21:30;11.20;;;3.23;;
6755;SDS011;3415;51.148;7.014;2023-05-23T14:23:57;9.07;;;2.80;;
6755;SDS011;3415;51.148;7.014;2023-05-23T14:26:24;6.43;;;2.77;;
6755;SDS011;3415;51.148;7.014;2023-05-23T14:28:51;9.60;;;2.77;;
6755;SDS011;3415;51.148;7.014;2023-05-23T14:31:19;6.50;;;2.27;;
6755;SDS011;3415;51.148;7.014;2023-05-23T14:33:47;6.33;;;3.30;;
6755;SDS011;3415;51.148;7.014;2023-05-23T14:36:13;15.17;;;2.60;;
6755;SDS011;3415;51.148;7.014;2023-05-23T14:38:40;9.93;;;2.83;;
6755;SDS011;3415;51.148;7.014;2023-05-23T14:41:09;7.70;;;2.67;;
6755;SDS011;3415;51.148;7.014;2023-05-23T14:43:36;10.43;;;2.70;;
6755;SDS011;3415;51.148;7.014;2023-05-23T14:46:03;8.77;;;2.60;;
6755;SDS011;3415;51.148;7.014;2023-05-23T14:48:31;4.60;;;2.63;;
6755;SDS011;3415;51.148;7.014;2023-05-23T14:50:58;7.50;;;2.50;;
6755;SDS011;3415;51.148;7.014;2023-05-23T14:53:25;10.30;;;3.03;;
6755;SDS011;3415;51.148;7.014;2023-05-23T14:55:52;7.20;;;2.20;;
6755;SDS011;3415;51.148;7.014;2023-05-23T14:58:20;10.37;;;2.30;;
6755;SDS011;3415;51.148;7.014;2023-05-23T15:00:47;5.70;;;3.00;;
6755;SDS011;3415;51.148;7.014;2023-05-23T15:03:14;5.70;;;2.40;;
6755;SDS011;3415;51.148;7.014;2023-05-23T15:05:42;3.63;;;2.40;;
6755;SDS011;3415;51.148;7.014;2023-05-23T15:08:09;8.23;;;3.00;;
6755;SDS011;3415;51.148;7.014;2023-05-23T15:10:36;5.00;;;2.40;;